createdAt,value
2023-02-09T00:01:40.115Z,76.22
2023-02-09T00:04:10.760Z,76.31
2023-02-09T00:06:39.391Z,76.38
2023-02-09T00:09:08.727Z,76.32
2023-02-09T00:11:54.750Z,76.16
2023-02-09T00:14:23.146Z,75.99
2023-02-09T00:16:51.848Z,76.15
2023-02-09T00:19:22.589Z,76.02
2023-02-09T00:21:50.885Z,75.91
2023-02-09T00:24:19.317Z,75.98
2023-02-09T00:26:47.638Z,75.96
2023-02-09T00:29:17.305Z,75.99
2023-02-09T00:31:45.588Z,75.88
2023-02-09T00:34:15.217Z,75.87
2023-02-09T00:36:44.890Z,75.79
2023-02-09T00:39:13.158Z,76.39
2023-02-09T00:41:58.937Z,75.96
2023-02-09T00:44:27.269Z,75.92
2023-02-09T00:46:56.981Z,75.77
2023-02-09T00:49:25.283Z,76.68
2023-02-09T00:51:55.877Z,76.23
2023-02-09T00:54:24.393Z,75.93
2023-02-09T00:56:52.702Z,76.20
2023-02-09T00:59:20.909Z,75.99
2023-02-09T01:01:49.176Z,76.66
2023-02-09T01:04:17.493Z,76.31
2023-02-09T01:06:48.606Z,76.43
2023-02-09T01:09:19.285Z,76.31
2023-02-09T01:11:47.471Z,76.20
2023-02-09T01:14:15.666Z,76.69
2023-02-09T01:16:44.029Z,76.63
2023-02-09T01:19:13.951Z,76.70
2023-02-09T01:21:43.229Z,76.62
2023-02-09T01:24:15.400Z,76.69
2023-02-09T01:26:45.061Z,76.51
2023-02-09T01:29:15.332Z,76.73
2023-02-09T01:31:43.863Z,76.63
2023-02-09T01:34:14.208Z,76.79
2023-02-09T01:36:42.721Z,76.60
2023-02-09T01:39:12.354Z,77.15
2023-02-09T01:41:42.504Z,76.98
2023-02-09T01:44:50.569Z,77.06
2023-02-09T01:47:21.370Z,76.99
2023-02-09T01:49:51.229Z,77.17
2023-02-09T01:52:22.586Z,77.21
2023-02-09T01:54:54.116Z,77.33
2023-02-09T01:57:26.375Z,76.72
2023-02-09T01:59:58.990Z,77.05
2023-02-09T02:02:31.951Z,77.12
2023-02-09T02:05:00.834Z,77.43
2023-02-09T02:07:32.468Z,77.34
2023-02-09T02:10:02.243Z,78.23
2023-02-09T02:12:30.785Z,76.97
2023-02-09T02:14:59.042Z,77.84
2023-02-09T02:17:43.381Z,78.22
2023-02-09T02:20:47.643Z,78.22
2023-02-09T02:23:29.251Z,78.45
2023-02-09T02:26:37.920Z,78.21
2023-02-09T02:29:37.724Z,78.18
2023-02-09T02:32:19.528Z,78.13
2023-02-09T02:34:54.297Z,77.25
2023-02-09T02:37:40.015Z,77.56
2023-02-09T02:40:19.834Z,78.56
2023-02-09T02:42:53.417Z,77.92
2023-02-09T02:45:33.858Z,77.92
2023-02-09T02:48:13.450Z,78.36
2023-02-09T02:50:48.325Z,78.88
2023-02-09T02:53:19.791Z,78.76
2023-02-09T02:55:50.278Z,78.45
2023-02-09T02:58:21.878Z,78.51
2023-02-09T03:00:53.231Z,77.33
2023-02-09T03:03:26.393Z,77.89
2023-02-09T03:05:55.206Z,78.31
2023-02-09T03:08:23.405Z,78.32
2023-02-09T03:10:52.184Z,78.62
2023-02-09T03:13:38.117Z,78.44
2023-02-09T03:16:28.360Z,78.21
2023-02-09T03:19:07.817Z,77.73
2023-02-09T03:21:46.403Z,78.06
2023-02-09T03:24:20.881Z,77.85
2023-02-09T03:26:53.069Z,77.66
2023-02-09T03:29:23.637Z,77.68
2023-02-09T03:31:52.771Z,77.43
2023-02-09T03:34:22.575Z,78.56
2023-02-09T03:36:53.269Z,77.96
2023-02-09T03:39:21.492Z,78.12
2023-02-09T03:41:49.718Z,77.81
2023-02-09T03:44:29.928Z,77.94
2023-02-09T03:47:00.011Z,78.02
2023-02-09T03:49:35.976Z,78.16
2023-02-09T03:52:05.098Z,77.84
2023-02-09T03:54:34.506Z,77.50
2023-02-09T03:57:02.916Z,77.79
2023-02-09T03:59:31.362Z,77.50
2023-02-09T04:02:00.338Z,77.87
2023-02-09T04:04:28.727Z,78.53
2023-02-09T04:06:58.839Z,78.47
2023-02-09T04:09:28.533Z,78.49
2023-02-09T04:11:57.021Z,78.34
2023-02-09T04:14:25.464Z,77.53
2023-02-09T04:16:53.976Z,78.30
2023-02-09T04:19:22.187Z,77.52
2023-02-09T04:21:50.386Z,78.53
2023-02-09T04:24:28.951Z,78.25
2023-02-09T04:26:57.222Z,78.20
2023-02-09T04:29:25.586Z,78.03
2023-02-09T04:31:53.995Z,77.96
2023-02-09T04:34:24.153Z,78.15
2023-02-09T04:36:52.607Z,78.18
2023-02-09T04:39:20.855Z,77.73
2023-02-09T04:41:50.499Z,78.26
2023-02-09T04:44:18.787Z,77.78
2023-02-09T04:46:47.019Z,78.24
2023-02-09T04:49:15.266Z,78.03
2023-02-09T04:51:43.455Z,78.14
2023-02-09T04:54:11.669Z,77.92
2023-02-09T04:56:39.938Z,77.94
2023-02-09T04:59:27.874Z,77.89
2023-02-09T05:01:56.061Z,77.47
2023-02-09T05:04:24.263Z,77.62
2023-02-09T05:06:52.473Z,78.29
2023-02-09T05:09:20.737Z,77.56
2023-02-09T05:11:49.020Z,77.44
2023-02-09T05:14:18.621Z,77.27
2023-02-09T05:16:46.934Z,77.24
2023-02-09T05:19:15.173Z,76.92
2023-02-09T05:21:43.440Z,77.60
2023-02-09T05:24:11.761Z,77.36
2023-02-09T05:26:40.008Z,77.17
2023-02-09T05:29:08.329Z,77.24
2023-02-09T05:31:38.252Z,77.44
2023-02-09T05:34:06.628Z,77.42
2023-02-09T05:36:34.814Z,76.88
2023-02-09T05:39:03.139Z,77.20
2023-02-09T05:41:48.720Z,77.69
2023-02-09T05:44:17.414Z,77.46
2023-02-09T05:46:47.088Z,77.29
2023-02-09T05:49:15.344Z,76.88
2023-02-09T05:51:43.573Z,77.61
2023-02-09T05:54:11.829Z,77.15
2023-02-09T05:56:40.796Z,76.70
2023-02-09T05:59:09.075Z,76.87
2023-02-09T06:01:37.408Z,76.83
2023-02-09T06:04:07.349Z,77.05
2023-02-09T06:06:35.559Z,77.16
2023-02-09T06:09:04.618Z,76.78
2023-02-09T06:11:33.054Z,76.94
2023-02-09T06:14:01.342Z,77.22
2023-02-09T06:16:29.570Z,76.41
2023-02-09T06:18:57.832Z,77.16
2023-02-09T06:21:27.470Z,76.71
2023-02-09T06:23:55.690Z,76.81
2023-02-09T06:26:23.884Z,77.26
2023-02-09T06:28:52.115Z,76.90
2023-02-09T06:31:20.419Z,77.32
2023-02-09T06:33:48.816Z,76.53
2023-02-09T06:36:17.073Z,77.43
2023-02-09T06:38:46.694Z,77.37
2023-02-09T06:41:14.960Z,77.35
2023-02-09T06:43:43.194Z,76.90
2023-02-09T06:46:13.497Z,77.19
2023-02-09T06:48:41.899Z,77.06
2023-02-09T06:51:10.984Z,77.55
2023-02-09T06:53:40.303Z,77.13
2023-02-09T06:56:10.827Z,76.90
2023-02-09T06:58:40.075Z,77.50
2023-02-09T07:01:11.478Z,77.34
2023-02-09T07:03:40.031Z,77.03
2023-02-09T07:06:11.871Z,77.17
2023-02-09T07:08:41.872Z,76.82
2023-02-09T07:11:13.760Z,77.15
2023-02-09T07:13:57.105Z,76.89
2023-02-09T07:16:25.631Z,77.21
2023-02-09T07:18:53.940Z,77.11
2023-02-09T07:21:22.671Z,77.14
2023-02-09T07:23:52.594Z,77.25
2023-02-09T07:26:22.300Z,77.31
2023-02-09T07:28:50.562Z,77.39
2023-02-09T07:31:18.988Z,77.24
2023-02-09T07:33:47.379Z,77.50
2023-02-09T07:36:19.304Z,77.57
2023-02-09T07:38:47.709Z,77.53
2023-02-09T07:41:18.788Z,77.40
2023-02-09T07:43:48.772Z,77.80
2023-02-09T07:46:18.893Z,78.02
2023-02-09T07:48:47.218Z,78.14
2023-02-09T07:51:16.038Z,78.08
2023-02-09T07:53:44.601Z,77.43
2023-02-09T07:56:12.881Z,77.78
2023-02-09T07:58:41.126Z,77.89
2023-02-09T08:01:13.964Z,78.49
2023-02-09T08:03:45.435Z,78.34
2023-02-09T08:06:19.798Z,78.41
2023-02-09T08:08:49.217Z,78.82
2023-02-09T08:11:21.256Z,78.79
2023-02-09T08:13:50.913Z,77.95
2023-02-09T08:16:23.890Z,78.71
2023-02-09T08:18:55.766Z,77.98
2023-02-09T08:21:24.895Z,79.56
2023-02-09T08:23:55.565Z,78.81
2023-02-09T08:26:24.109Z,78.07
2023-02-09T08:28:53.485Z,78.91
2023-02-09T08:31:23.276Z,79.00
2023-02-09T08:33:52.721Z,78.98
2023-02-09T08:36:21.457Z,79.11
2023-02-09T08:38:49.933Z,78.27
2023-02-09T08:41:19.597Z,79.38
2023-02-09T08:43:51.964Z,78.48
2023-02-09T08:46:22.132Z,78.85
2023-02-09T08:48:50.405Z,79.16
2023-02-09T08:51:19.113Z,79.84
2023-02-09T08:53:52.422Z,78.76
2023-02-09T08:56:21.893Z,79.33
2023-02-09T08:58:50.815Z,79.75
2023-02-09T09:01:19.213Z,79.98
2023-02-09T09:03:49.469Z,79.65
2023-02-09T09:06:17.825Z,79.70
2023-02-09T09:08:46.174Z,78.98
2023-02-09T09:11:14.912Z,80.12
2023-02-09T09:13:43.319Z,80.13
2023-02-09T09:16:15.795Z,78.74
2023-02-09T09:18:45.347Z,79.74
2023-02-09T09:21:17.062Z,79.62
2023-02-09T09:23:46.248Z,80.12
2023-02-09T09:26:14.777Z,80.09
2023-02-09T09:28:43.180Z,79.40
2023-02-09T09:31:12.929Z,79.95
2023-02-09T09:33:42.784Z,80.60
2023-02-09T09:36:11.889Z,80.13
2023-02-09T09:38:42.732Z,80.29
2023-02-09T09:41:22.138Z,80.17
2023-02-09T09:43:50.902Z,80.78
2023-02-09T09:46:22.170Z,80.40
2023-02-09T09:48:54.324Z,80.01
2023-02-09T09:51:31.937Z,80.67
2023-02-09T09:54:04.786Z,80.53
2023-02-09T09:56:34.216Z,80.59
2023-02-09T09:59:03.019Z,80.14
2023-02-09T10:01:33.607Z,80.80
2023-02-09T10:04:07.486Z,80.75
2023-02-09T10:06:35.722Z,80.44
2023-02-09T10:09:11.000Z,81.94
2023-02-09T10:11:47.002Z,80.87
2023-02-09T10:14:15.913Z,80.75
2023-02-09T10:16:46.025Z,82.04
2023-02-09T10:19:20.374Z,81.22
2023-02-09T10:21:49.611Z,81.55
2023-02-09T10:24:24.417Z,82.12
2023-02-09T10:27:08.816Z,81.94
2023-02-09T10:29:37.606Z,81.26
2023-02-09T10:32:09.251Z,81.84
2023-02-09T10:34:45.167Z,81.88
2023-02-09T10:37:21.373Z,81.49
2023-02-09T10:40:11.348Z,82.46
2023-02-09T10:42:42.940Z,82.09
2023-02-09T10:45:17.048Z,82.77
2023-02-09T10:47:59.095Z,83.34
2023-02-09T10:50:27.395Z,81.30
2023-02-09T10:52:59.570Z,81.91
2023-02-09T10:55:35.897Z,81.71
2023-02-09T10:58:26.886Z,82.16
2023-02-09T11:01:01.637Z,81.75
2023-02-09T11:03:30.338Z,81.89
2023-02-09T11:06:00.916Z,82.48
2023-02-09T11:08:40.244Z,82.53
2023-02-09T11:11:19.419Z,81.52
2023-02-09T11:13:47.883Z,81.75
2023-02-09T11:16:53.570Z,81.49
2023-02-09T11:19:56.271Z,81.10
2023-02-09T11:22:43.889Z,81.89
2023-02-09T11:25:22.965Z,81.23
2023-02-09T11:28:29.974Z,80.88
2023-02-09T11:31:18.564Z,82.66
2023-02-09T11:33:58.832Z,81.50
2023-02-09T11:36:41.887Z,81.67
2023-02-09T11:39:17.295Z,81.79
2023-02-09T11:42:07.686Z,82.39
2023-02-09T11:44:40.508Z,81.28
2023-02-09T11:47:15.450Z,82.54
2023-02-09T11:49:46.582Z,81.20
2023-02-09T11:52:19.421Z,81.47
2023-02-09T11:54:50.758Z,82.29
2023-02-09T11:57:27.727Z,81.74
2023-02-09T12:00:00.270Z,81.73
2023-02-09T12:02:46.144Z,80.50
2023-02-09T12:05:19.322Z,80.47
2023-02-09T12:08:04.670Z,81.19
2023-02-09T12:10:39.084Z,81.08
2023-02-09T12:13:19.882Z,82.00
2023-02-09T12:15:51.566Z,81.92
2023-02-09T12:18:23.850Z,81.02
2023-02-09T12:20:54.437Z,81.55
2023-02-09T12:23:31.835Z,82.59
2023-02-09T12:26:01.645Z,83.39
2023-02-09T12:28:42.300Z,82.36
2023-02-09T12:31:16.936Z,81.19
2023-02-09T12:34:28.698Z,81.84
2023-02-09T12:37:18.073Z,81.42
2023-02-09T12:40:18.382Z,81.93
2023-02-09T12:43:04.030Z,81.58
2023-02-09T12:45:36.005Z,82.01
2023-02-09T12:48:14.451Z,82.70
2023-02-09T12:50:53.984Z,80.11
2023-02-09T12:53:56.193Z,80.95
2023-02-09T12:56:35.199Z,81.45
2023-02-09T12:59:18.980Z,81.66
2023-02-09T13:02:16.846Z,80.94
2023-02-09T13:04:58.643Z,80.91
2023-02-09T13:07:41.047Z,81.55
2023-02-09T13:10:20.566Z,80.90
2023-02-09T13:12:55.379Z,81.52
2023-02-09T13:15:23.606Z,81.81
2023-02-09T13:18:07.854Z,81.46
2023-02-09T13:21:14.620Z,81.23
2023-02-09T13:23:56.484Z,81.96
2023-02-09T13:26:27.341Z,80.71
2023-02-09T13:29:19.917Z,80.24
2023-02-09T13:31:59.150Z,81.95
2023-02-09T13:34:35.794Z,81.88
2023-02-09T13:37:23.490Z,82.89
2023-02-09T13:40:00.815Z,81.36
2023-02-09T13:42:31.139Z,81.01
2023-02-09T13:45:00.906Z,80.32
2023-02-09T13:47:29.689Z,80.16
2023-02-09T13:50:00.133Z,80.30
2023-02-09T13:52:34.973Z,80.27
2023-02-09T13:55:19.178Z,80.72
2023-02-09T13:57:51.117Z,80.38
2023-02-09T14:00:27.044Z,79.98
2023-02-09T14:02:58.701Z,80.23
2023-02-09T14:05:35.365Z,81.16
2023-02-09T14:08:04.278Z,81.41
2023-02-09T14:10:35.635Z,81.92
2023-02-09T14:13:06.353Z,80.51
2023-02-09T14:15:56.329Z,80.52
2023-02-09T14:18:41.022Z,79.89
2023-02-09T14:21:24.269Z,80.78
2023-02-09T14:24:15.280Z,80.43
2023-02-09T14:26:48.864Z,81.54
2023-02-09T14:29:20.378Z,80.59
2023-02-09T14:31:50.308Z,80.09
2023-02-09T14:34:35.325Z,80.36
2023-02-09T14:37:25.451Z,80.36
2023-02-09T14:39:54.847Z,80.03
2023-02-09T14:42:25.184Z,80.07
2023-02-09T14:44:56.434Z,80.08
2023-02-09T14:47:42.150Z,79.75
2023-02-09T14:50:14.607Z,79.91
2023-02-09T14:52:47.195Z,80.01
2023-02-09T14:55:18.511Z,79.95
2023-02-09T14:57:48.534Z,79.91
2023-02-09T15:00:19.402Z,80.11
2023-02-09T15:02:48.349Z,79.94
2023-02-09T15:05:17.067Z,79.56
2023-02-09T15:07:48.282Z,80.16
2023-02-09T15:10:24.573Z,79.97
2023-02-09T15:12:54.893Z,79.89
2023-02-09T15:15:24.069Z,79.88
2023-02-09T15:17:54.266Z,79.81
2023-02-09T15:20:25.377Z,79.56
2023-02-09T15:22:53.864Z,79.75
2023-02-09T15:25:23.258Z,80.05
2023-02-09T15:27:54.840Z,79.47
2023-02-09T15:30:24.739Z,79.95
2023-02-09T15:32:53.565Z,79.80
2023-02-09T15:35:23.728Z,80.37
2023-02-09T15:37:55.600Z,80.18
2023-02-09T15:40:43.422Z,80.19
2023-02-09T15:43:32.476Z,80.17
2023-02-09T15:46:18.319Z,80.34
2023-02-09T15:48:46.689Z,80.43
2023-02-09T15:51:15.741Z,80.43
2023-02-09T15:53:45.181Z,80.30
2023-02-09T15:56:15.745Z,80.26
2023-02-09T15:58:48.219Z,79.82
2023-02-09T16:01:18.298Z,80.50
2023-02-09T16:03:46.846Z,80.59
2023-02-09T16:06:20.149Z,80.65
2023-02-09T16:08:51.473Z,80.33
2023-02-09T16:11:22.869Z,80.59
2023-02-09T16:13:52.627Z,80.51
2023-02-09T16:16:21.111Z,80.75
2023-02-09T16:18:49.363Z,80.50
2023-02-09T16:21:23.780Z,80.08
2023-02-09T16:23:53.677Z,80.57
2023-02-09T16:26:23.141Z,80.48
2023-02-09T16:28:54.049Z,80.20
2023-02-09T16:31:22.990Z,80.28
2023-02-09T16:33:51.746Z,80.33
2023-02-09T16:36:29.764Z,80.33
2023-02-09T16:38:58.126Z,80.95
2023-02-09T16:41:43.986Z,80.84
2023-02-09T16:44:18.467Z,81.14
2023-02-09T16:46:48.733Z,80.70
2023-02-09T16:49:33.105Z,80.76
2023-02-09T16:52:05.721Z,81.33
2023-02-09T16:54:40.921Z,81.41
2023-02-09T16:57:14.979Z,81.65
2023-02-09T16:59:46.066Z,81.06
2023-02-09T17:02:34.015Z,81.52
2023-02-09T17:05:03.794Z,81.78
2023-02-09T17:07:45.390Z,81.93
2023-02-09T17:10:23.367Z,82.25
2023-02-09T17:12:53.628Z,81.81
2023-02-09T17:15:31.230Z,81.89
2023-02-09T17:18:04.638Z,81.75
2023-02-09T17:20:38.549Z,81.81
2023-02-09T17:23:07.089Z,81.88
2023-02-09T17:25:38.467Z,81.95
2023-02-09T17:28:06.775Z,81.88
2023-02-09T17:30:40.089Z,81.83
2023-02-09T17:33:12.168Z,81.59
2023-02-09T17:38:32.858Z,81.24
2023-02-09T17:41:04.959Z,81.43
2023-02-09T17:43:33.418Z,81.27
2023-02-09T17:46:05.289Z,81.13
2023-02-09T17:48:33.626Z,81.05
2023-02-09T17:51:02.792Z,81.08
2023-02-09T17:53:35.391Z,81.03
2023-02-09T17:56:03.643Z,80.86
2023-02-09T17:58:31.934Z,81.04
2023-02-09T18:01:00.456Z,80.97
2023-02-09T18:03:32.774Z,80.91
2023-02-09T18:06:03.088Z,80.88
2023-02-09T18:08:31.319Z,80.97
2023-02-09T18:10:59.563Z,81.06
2023-02-09T18:13:30.047Z,81.02
2023-02-09T18:15:58.316Z,80.75
2023-02-09T18:18:26.732Z,80.91
2023-02-09T18:20:56.480Z,81.03
2023-02-09T18:23:24.834Z,80.89
2023-02-09T18:25:53.255Z,80.98
2023-02-09T18:28:21.608Z,80.72
2023-02-09T18:30:50.017Z,80.89
2023-02-09T18:33:18.907Z,80.71
2023-02-09T18:35:47.470Z,80.65
2023-02-09T18:38:17.369Z,80.33
2023-02-09T18:40:45.697Z,81.18
2023-02-09T18:43:15.745Z,80.74
2023-02-09T18:45:44.561Z,80.82
2023-02-09T18:48:13.387Z,80.82
2023-02-09T18:50:42.517Z,80.69
2023-02-09T18:53:13.138Z,80.71
2023-02-09T18:55:43.731Z,81.00
2023-02-09T18:58:14.585Z,80.90
2023-02-09T19:00:43.151Z,80.95
2023-02-09T19:03:13.163Z,81.01
2023-02-09T19:05:42.573Z,81.13
2023-02-09T19:08:11.037Z,80.84
2023-02-09T19:10:40.952Z,80.94
2023-02-09T19:13:11.128Z,80.95
2023-02-09T19:15:40.115Z,81.32
2023-02-09T19:18:08.453Z,81.43
2023-02-09T19:20:36.993Z,81.54
2023-02-09T19:23:07.642Z,81.55
2023-02-09T19:25:36.229Z,81.23
2023-02-09T19:28:04.546Z,81.39
2023-02-09T19:30:34.395Z,81.27
2023-02-09T19:33:02.716Z,81.59
2023-02-09T19:35:31.960Z,81.36
2023-02-09T19:38:00.547Z,81.92
2023-02-09T19:40:35.582Z,81.59
2023-02-09T19:43:04.606Z,81.33
2023-02-09T19:45:37.783Z,81.36
2023-02-09T19:48:07.392Z,81.37
2023-02-09T19:50:36.865Z,81.41
2023-02-09T19:53:07.011Z,81.58
2023-02-09T19:55:35.937Z,81.27
2023-02-09T19:58:04.205Z,81.71
2023-02-09T20:00:33.978Z,81.63
2023-02-09T20:03:02.337Z,81.68
2023-02-09T20:05:30.606Z,81.66
2023-02-09T20:07:59.065Z,81.37
2023-02-09T20:10:27.401Z,81.40
2023-02-09T20:12:55.644Z,81.19
2023-02-09T20:15:23.944Z,80.81
2023-02-09T20:17:53.732Z,80.27
2023-02-09T20:20:21.970Z,80.37
2023-02-09T20:22:51.293Z,80.41
2023-02-09T20:25:25.603Z,80.65
2023-02-09T20:27:53.943Z,80.44
2023-02-09T20:30:22.271Z,80.36
2023-02-09T20:32:54.832Z,79.85
2023-02-09T20:35:23.239Z,79.79
2023-02-09T20:37:52.856Z,79.74
2023-02-09T20:40:21.698Z,79.69
2023-02-09T20:43:07.610Z,79.44
2023-02-09T20:45:55.552Z,79.69
2023-02-09T20:48:25.232Z,79.11
2023-02-09T20:50:53.465Z,78.99
2023-02-09T20:53:22.460Z,79.07
2023-02-09T20:55:51.005Z,78.86
2023-02-09T20:58:20.137Z,78.96
2023-02-09T21:00:48.879Z,78.96
2023-02-09T21:03:17.485Z,78.40
2023-02-09T21:05:47.162Z,78.18
2023-02-09T21:08:15.548Z,78.20
2023-02-09T21:10:43.827Z,77.98
2023-02-09T21:13:12.883Z,77.37
2023-02-09T21:15:42.818Z,77.15
2023-02-09T21:18:11.236Z,76.99
2023-02-09T21:20:40.325Z,76.96
2023-02-09T21:23:09.984Z,76.61
2023-02-09T21:25:38.422Z,76.43
2023-02-09T21:28:06.935Z,76.03
2023-02-09T21:30:35.215Z,75.54
2023-02-09T21:33:03.476Z,74.99
2023-02-09T21:35:31.924Z,74.92
2023-02-09T21:38:00.584Z,74.67
2023-02-09T21:40:30.176Z,74.19
2023-02-09T21:42:58.417Z,73.98
2023-02-09T21:45:27.409Z,73.68
2023-02-09T21:47:55.816Z,73.49
2023-02-09T21:50:24.132Z,73.22
2023-02-09T21:52:54.389Z,72.83
2023-02-09T21:55:23.068Z,72.51
2023-02-09T21:57:52.767Z,72.31
2023-02-09T22:00:21.457Z,71.97
2023-02-09T22:02:53.267Z,71.88
2023-02-09T22:05:21.583Z,71.63
2023-02-09T22:07:51.047Z,71.62
2023-02-09T22:10:19.483Z,71.53
2023-02-09T22:12:48.039Z,71.49
2023-02-09T22:15:19.167Z,71.45
2023-02-09T22:17:48.369Z,71.29
2023-02-09T22:20:16.868Z,71.36
2023-02-09T22:22:46.151Z,71.06
2023-02-09T22:25:14.445Z,71.24
2023-02-09T22:27:42.865Z,71.17
2023-02-09T22:30:12.177Z,70.90
2023-02-09T22:32:42.056Z,71.00
2023-02-09T22:35:10.344Z,70.83
2023-02-09T22:37:39.412Z,70.85
2023-02-09T22:40:08.401Z,70.92
2023-02-09T22:42:36.718Z,70.83
2023-02-09T22:45:05.910Z,70.85
2023-02-09T22:47:35.324Z,70.78
2023-02-09T22:50:05.376Z,70.52
2023-02-09T22:52:33.739Z,70.65
2023-02-09T22:55:01.979Z,70.61
2023-02-09T22:57:30.220Z,70.58
2023-02-09T22:59:58.565Z,70.55
2023-02-09T23:02:26.876Z,70.54
2023-02-09T23:04:55.124Z,70.48
2023-02-09T23:07:25.469Z,70.50
2023-02-09T23:09:53.857Z,70.47
2023-02-09T23:12:22.078Z,70.49
2023-02-09T23:14:50.352Z,70.42
2023-02-09T23:17:18.612Z,70.52
2023-02-09T23:19:46.950Z,70.42
2023-02-09T23:22:15.241Z,70.42
2023-02-09T23:24:45.182Z,70.52
2023-02-09T23:27:13.414Z,70.35
2023-02-09T23:29:41.769Z,70.54
2023-02-09T23:32:10.036Z,70.61
2023-02-09T23:34:39.143Z,70.69
2023-02-09T23:37:18.103Z,70.55
2023-02-09T23:39:57.003Z,70.63
2023-02-09T23:42:25.327Z,70.78
2023-02-09T23:44:53.612Z,70.68
2023-02-09T23:47:22.154Z,70.89
2023-02-09T23:49:50.750Z,71.00
2023-02-09T23:52:19.022Z,70.88
2023-02-09T23:54:47.243Z,70.84
2023-02-09T23:57:17.949Z,70.77
2023-02-09T23:59:46.210Z,70.79
